<?xml version="1.0" encoding="UTF-8" standalone="no" ?>
<gpx xmlns="http://www.topografix.com/GPX/1/1" xmlns:xsi="http://www.w3.org/2001/XMLSchema-instance" xsi:schemaLocation="http://www.topografix.com/GPX/1/1 http://www.topografix.com/GPX/1/1/gpx.xsd" version="1.1" creator="VisuGPX - https://www.visugpx.com">
  <metadata>
    <name>LIZIO</name>
    <desc><![CDATA[Parking départ de rando étang le val jouin, remonter vers le bourg et à gauche.]]></desc>
  </metadata>
  <trk>
    <name><![CDATA[LIZIO_1]]></name>
    <trkseg>
      <trkpt lat="47.86615" lon="-2.51628">
        <ele>-5</ele>
        <time>2012-03-30T11:46:18</time>
      </trkpt>
      <trkpt lat="47.86612" lon="-2.51626">
        <ele>-6</ele>
        <time>2012-03-30T11:46:48</time>
      </trkpt>
      <trkpt lat="47.86612" lon="-2.51621">
        <ele>-5</ele>
        <time>2012-03-30T11:47:18</time>
      </trkpt>
      <trkpt lat="47.86617" lon="-2.51622">
        <ele>-5</ele>
        <time>2012-03-30T11:47:48</time>
      </trkpt>
      <trkpt lat="47.86617" lon="-2.51619">
        <ele>-6</ele>
        <time>2012-03-30T11:48:19</time>
      </trkpt>
      <trkpt lat="47.8662" lon="-2.51617">
        <ele>-5</ele>
        <time>2012-03-30T11:48:49</time>
      </trkpt>
      <trkpt lat="47.86618" lon="-2.5162">
        <ele>-5</ele>
        <time>2012-03-30T11:49:19</time>
      </trkpt>
      <trkpt lat="47.86589" lon="-2.5164">
        <ele>-5</ele>
        <time>2012-03-30T11:49:49</time>
      </trkpt>
      <trkpt lat="47.86562" lon="-2.51652">
        <ele>-3</ele>
        <time>2012-03-30T11:50:19</time>
      </trkpt>
      <trkpt lat="47.86539" lon="-2.51682">
        <ele>85.6</ele>
        <time>2012-03-30T11:50:50</time>
      </trkpt>
      <trkpt lat="47.86512" lon="-2.51706">
        <ele>2</ele>
        <time>2012-03-30T11:51:20</time>
      </trkpt>
      <trkpt lat="47.86496" lon="-2.51748">
        <ele>4</ele>
        <time>2012-03-30T11:51:50</time>
      </trkpt>
      <trkpt lat="47.865" lon="-2.51764">
        <ele>4</ele>
        <time>2012-03-30T11:52:20</time>
      </trkpt>
      <trkpt lat="47.86505" lon="-2.51764">
        <ele>5</ele>
        <time>2012-03-30T11:52:50</time>
      </trkpt>
      <trkpt lat="47.865" lon="-2.51772">
        <ele>5</ele>
        <time>2012-03-30T11:53:20</time>
      </trkpt>
      <trkpt lat="47.86477" lon="-2.51749">
        <ele>1</ele>
        <time>2012-03-30T11:53:51</time>
      </trkpt>
      <trkpt lat="47.86448" lon="-2.51716">
        <ele>-1</ele>
        <time>2012-03-30T11:54:21</time>
      </trkpt>
      <trkpt lat="47.8642" lon="-2.51689">
        <ele>-4</ele>
        <time>2012-03-30T11:54:51</time>
      </trkpt>
      <trkpt lat="47.86419" lon="-2.51656">
        <ele>-5</ele>
        <time>2012-03-30T11:55:21</time>
      </trkpt>
      <trkpt lat="47.86415" lon="-2.51621">
        <ele>-5</ele>
        <time>2012-03-30T11:55:51</time>
      </trkpt>
      <trkpt lat="47.86418" lon="-2.51588">
        <ele>-6</ele>
        <time>2012-03-30T11:56:22</time>
      </trkpt>
      <trkpt lat="47.86407" lon="-2.51568">
        <ele>-8</ele>
        <time>2012-03-30T11:56:52</time>
      </trkpt>
      <trkpt lat="47.86401" lon="-2.51573">
        <ele>-8</ele>
        <time>2012-03-30T11:57:22</time>
      </trkpt>
      <trkpt lat="47.86396" lon="-2.51576">
        <ele>-7</ele>
        <time>2012-03-30T11:57:52</time>
      </trkpt>
      <trkpt lat="47.86376" lon="-2.51567">
        <ele>-6</ele>
        <time>2012-03-30T11:58:22</time>
      </trkpt>
      <trkpt lat="47.86352" lon="-2.5156">
        <ele>-5</ele>
        <time>2012-03-30T11:58:52</time>
      </trkpt>
      <trkpt lat="47.86327" lon="-2.5156">
        <ele>-5</ele>
        <time>2012-03-30T11:59:22</time>
      </trkpt>
      <trkpt lat="47.86298" lon="-2.51548">
        <ele>-5</ele>
        <time>2012-03-30T11:59:53</time>
      </trkpt>
      <trkpt lat="47.86285" lon="-2.51569">
        <ele>-1</ele>
        <time>2012-03-30T12:00:23</time>
      </trkpt>
      <trkpt lat="47.86275" lon="-2.5159">
        <ele>3</ele>
        <time>2012-03-30T12:00:53</time>
      </trkpt>
      <trkpt lat="47.86248" lon="-2.51604">
        <ele>4</ele>
        <time>2012-03-30T12:01:23</time>
      </trkpt>
      <trkpt lat="47.86235" lon="-2.51634">
        <ele>7</ele>
        <time>2012-03-30T12:01:54</time>
      </trkpt>
      <trkpt lat="47.86223" lon="-2.51652">
        <ele>10</ele>
        <time>2012-03-30T12:02:24</time>
      </trkpt>
      <trkpt lat="47.86208" lon="-2.51638">
        <ele>9</ele>
        <time>2012-03-30T12:02:54</time>
      </trkpt>
      <trkpt lat="47.86195" lon="-2.51631">
        <ele>10</ele>
        <time>2012-03-30T12:03:24</time>
      </trkpt>
      <trkpt lat="47.86198" lon="-2.51615">
        <ele>10</ele>
        <time>2012-03-30T12:03:54</time>
      </trkpt>
      <trkpt lat="47.86214" lon="-2.51583">
        <ele>6</ele>
        <time>2012-03-30T12:04:25</time>
      </trkpt>
      <trkpt lat="47.86228" lon="-2.51545">
        <ele>85.1</ele>
        <time>2012-03-30T12:04:55</time>
      </trkpt>
      <trkpt lat="47.86246" lon="-2.5151">
        <ele>-2</ele>
        <time>2012-03-30T12:05:25</time>
      </trkpt>
      <trkpt lat="47.86242" lon="-2.51473">
        <ele>-6</ele>
        <time>2012-03-30T12:05:55</time>
      </trkpt>
      <trkpt lat="47.86251" lon="-2.51425">
        <ele>-9</ele>
        <time>2012-03-30T12:06:25</time>
      </trkpt>
      <trkpt lat="47.86241" lon="-2.51393">
        <ele>-8</ele>
        <time>2012-03-30T12:06:56</time>
      </trkpt>
      <trkpt lat="47.86236" lon="-2.51346">
        <ele>-8</ele>
        <time>2012-03-30T12:07:26</time>
      </trkpt>
      <trkpt lat="47.86241" lon="-2.51298">
        <ele>-5</ele>
        <time>2012-03-30T12:07:56</time>
      </trkpt>
      <trkpt lat="47.86238" lon="-2.51255">
        <ele>-2</ele>
        <time>2012-03-30T12:08:26</time>
      </trkpt>
      <trkpt lat="47.86233" lon="-2.51217">
        <ele>76.2</ele>
        <time>2012-03-30T12:08:56</time>
      </trkpt>
      <trkpt lat="47.86224" lon="-2.5118">
        <ele>-4</ele>
        <time>2012-03-30T12:09:26</time>
      </trkpt>
      <trkpt lat="47.86212" lon="-2.51134">
        <ele>-7</ele>
        <time>2012-03-30T12:09:57</time>
      </trkpt>
      <trkpt lat="47.86204" lon="-2.5108">
        <ele>-11</ele>
        <time>2012-03-30T12:10:27</time>
      </trkpt>
      <trkpt lat="47.86197" lon="-2.51026">
        <ele>-11</ele>
        <time>2012-03-30T12:10:57</time>
      </trkpt>
      <trkpt lat="47.86185" lon="-2.50973">
        <ele>-11</ele>
        <time>2012-03-30T12:11:27</time>
      </trkpt>
      <trkpt lat="47.86155" lon="-2.50955">
        <ele>-11</ele>
        <time>2012-03-30T12:11:58</time>
      </trkpt>
      <trkpt lat="47.86117" lon="-2.5094">
        <ele>-12</ele>
        <time>2012-03-30T12:12:28</time>
      </trkpt>
      <trkpt lat="47.86093" lon="-2.50915">
        <ele>-10</ele>
        <time>2012-03-30T12:12:58</time>
      </trkpt>
      <trkpt lat="47.86074" lon="-2.50875">
        <ele>-10</ele>
        <time>2012-03-30T12:13:28</time>
      </trkpt>
      <trkpt lat="47.86065" lon="-2.5085">
        <ele>-9</ele>
        <time>2012-03-30T12:13:59</time>
      </trkpt>
      <trkpt lat="47.86064" lon="-2.5081">
        <ele>-12</ele>
        <time>2012-03-30T12:14:29</time>
      </trkpt>
      <trkpt lat="47.86037" lon="-2.50771">
        <ele>-12</ele>
        <time>2012-03-30T12:14:59</time>
      </trkpt>
      <trkpt lat="47.86012" lon="-2.5074">
        <ele>-13</ele>
        <time>2012-03-30T12:15:29</time>
      </trkpt>
      <trkpt lat="47.85988" lon="-2.50693">
        <ele>-14</ele>
        <time>2012-03-30T12:15:59</time>
      </trkpt>
      <trkpt lat="47.85979" lon="-2.50652">
        <ele>-16</ele>
        <time>2012-03-30T12:16:29</time>
      </trkpt>
      <trkpt lat="47.85987" lon="-2.50606">
        <ele>-17</ele>
        <time>2012-03-30T12:17:00</time>
      </trkpt>
      <trkpt lat="47.85964" lon="-2.5058">
        <ele>-19</ele>
        <time>2012-03-30T12:17:30</time>
      </trkpt>
      <trkpt lat="47.85933" lon="-2.50558">
        <ele>-20</ele>
        <time>2012-03-30T12:18:00</time>
      </trkpt>
      <trkpt lat="47.859" lon="-2.50543">
        <ele>-20</ele>
        <time>2012-03-30T12:18:30</time>
      </trkpt>
      <trkpt lat="47.85881" lon="-2.50541">
        <ele>-20</ele>
        <time>2012-03-30T12:19:00</time>
      </trkpt>
      <trkpt lat="47.85884" lon="-2.50545">
        <ele>-19</ele>
        <time>2012-03-30T12:19:31</time>
      </trkpt>
      <trkpt lat="47.85881" lon="-2.50544">
        <ele>-18</ele>
        <time>2012-03-30T12:20:01</time>
      </trkpt>
      <trkpt lat="47.85861" lon="-2.50545">
        <ele>-17</ele>
        <time>2012-03-30T12:20:31</time>
      </trkpt>
      <trkpt lat="47.85831" lon="-2.50538">
        <ele>-16</ele>
        <time>2012-03-30T12:21:01</time>
      </trkpt>
      <trkpt lat="47.858" lon="-2.5052">
        <ele>-17</ele>
        <time>2012-03-30T12:21:32</time>
      </trkpt>
      <trkpt lat="47.85769" lon="-2.50504">
        <ele>-18</ele>
        <time>2012-03-30T12:22:02</time>
      </trkpt>
      <trkpt lat="47.8574" lon="-2.50485">
        <ele>-15</ele>
        <time>2012-03-30T12:22:32</time>
      </trkpt>
      <trkpt lat="47.85722" lon="-2.50489">
        <ele>-12</ele>
        <time>2012-03-30T12:23:02</time>
      </trkpt>
      <trkpt lat="47.85705" lon="-2.50494">
        <ele>-8</ele>
        <time>2012-03-30T12:23:32</time>
      </trkpt>
      <trkpt lat="47.85686" lon="-2.505">
        <ele>-3</ele>
        <time>2012-03-30T12:24:02</time>
      </trkpt>
      <trkpt lat="47.85671" lon="-2.50516">
        <ele>86.9</ele>
        <time>2012-03-30T12:24:33</time>
      </trkpt>
      <trkpt lat="47.85645" lon="-2.50514">
        <ele>1</ele>
        <time>2012-03-30T12:25:03</time>
      </trkpt>
      <trkpt lat="47.85609" lon="-2.5051">
        <ele>3</ele>
        <time>2012-03-30T12:25:33</time>
      </trkpt>
      <trkpt lat="47.85587" lon="-2.50515">
        <ele>3</ele>
        <time>2012-03-30T12:26:03</time>
      </trkpt>
      <trkpt lat="47.85576" lon="-2.50535">
        <ele>2</ele>
        <time>2012-03-30T12:26:33</time>
      </trkpt>
      <trkpt lat="47.85562" lon="-2.50575">
        <ele>1</ele>
        <time>2012-03-30T12:27:04</time>
      </trkpt>
      <trkpt lat="47.85533" lon="-2.50604">
        <ele>-1</ele>
        <time>2012-03-30T12:27:34</time>
      </trkpt>
      <trkpt lat="47.85501" lon="-2.50634">
        <ele>-6</ele>
        <time>2012-03-30T12:28:04</time>
      </trkpt>
      <trkpt lat="47.85476" lon="-2.50673">
        <ele>-8</ele>
        <time>2012-03-30T12:28:34</time>
      </trkpt>
      <trkpt lat="47.8545" lon="-2.50697">
        <ele>-10</ele>
        <time>2012-03-30T12:29:04</time>
      </trkpt>
      <trkpt lat="47.8542" lon="-2.50715">
        <ele>-12</ele>
        <time>2012-03-30T12:29:35</time>
      </trkpt>
      <trkpt lat="47.85387" lon="-2.50726">
        <ele>-11</ele>
        <time>2012-03-30T12:30:05</time>
      </trkpt>
      <trkpt lat="47.85365" lon="-2.50713">
        <ele>-7</ele>
        <time>2012-03-30T12:30:35</time>
      </trkpt>
      <trkpt lat="47.85361" lon="-2.50657">
        <ele>-7</ele>
        <time>2012-03-30T12:31:05</time>
      </trkpt>
      <trkpt lat="47.85358" lon="-2.50599">
        <ele>-9</ele>
        <time>2012-03-30T12:31:35</time>
      </trkpt>
      <trkpt lat="47.85367" lon="-2.50545">
        <ele>-10</ele>
        <time>2012-03-30T12:32:06</time>
      </trkpt>
      <trkpt lat="47.85392" lon="-2.505">
        <ele>-14</ele>
        <time>2012-03-30T12:32:36</time>
      </trkpt>
      <trkpt lat="47.85401" lon="-2.50446">
        <ele>-14</ele>
        <time>2012-03-30T12:33:06</time>
      </trkpt>
      <trkpt lat="47.85401" lon="-2.50392">
        <ele>-13</ele>
        <time>2012-03-30T12:33:36</time>
      </trkpt>
      <trkpt lat="47.85389" lon="-2.50354">
        <ele>-10</ele>
        <time>2012-03-30T12:34:06</time>
      </trkpt>
      <trkpt lat="47.85388" lon="-2.50342">
        <ele>-10</ele>
        <time>2012-03-30T12:34:37</time>
      </trkpt>
      <trkpt lat="47.85379" lon="-2.50334">
        <ele>-10</ele>
        <time>2012-03-30T12:35:07</time>
      </trkpt>
      <trkpt lat="47.85378" lon="-2.50301">
        <ele>-8</ele>
        <time>2012-03-30T12:35:37</time>
      </trkpt>
      <trkpt lat="47.8538" lon="-2.50267">
        <ele>-7</ele>
        <time>2012-03-30T12:36:07</time>
      </trkpt>
      <trkpt lat="47.85372" lon="-2.5023">
        <ele>-6</ele>
        <time>2012-03-30T12:36:38</time>
      </trkpt>
      <trkpt lat="47.85374" lon="-2.50188">
        <ele>-4</ele>
        <time>2012-03-30T12:37:08</time>
      </trkpt>
      <trkpt lat="47.85378" lon="-2.50144">
        <ele>-3</ele>
        <time>2012-03-30T12:37:38</time>
      </trkpt>
      <trkpt lat="47.85382" lon="-2.50094">
        <ele>82.8</ele>
        <time>2012-03-30T12:38:08</time>
      </trkpt>
      <trkpt lat="47.85384" lon="-2.50043">
        <ele>1</ele>
        <time>2012-03-30T12:38:38</time>
      </trkpt>
      <trkpt lat="47.85372" lon="-2.5001">
        <ele>3</ele>
        <time>2012-03-30T12:39:09</time>
      </trkpt>
      <trkpt lat="47.85367" lon="-2.50005">
        <ele>3</ele>
        <time>2012-03-30T12:39:39</time>
      </trkpt>
      <trkpt lat="47.85361" lon="-2.50013">
        <ele>2</ele>
        <time>2012-03-30T12:40:09</time>
      </trkpt>
      <trkpt lat="47.8536" lon="-2.50021">
        <ele>3</ele>
        <time>2012-03-30T12:40:39</time>
      </trkpt>
      <trkpt lat="47.85338" lon="-2.50004">
        <ele>6</ele>
        <time>2012-03-30T12:41:09</time>
      </trkpt>
      <trkpt lat="47.85307" lon="-2.49986">
        <ele>8</ele>
        <time>2012-03-30T12:41:40</time>
      </trkpt>
      <trkpt lat="47.85275" lon="-2.49964">
        <ele>10</ele>
        <time>2012-03-30T12:42:10</time>
      </trkpt>
      <trkpt lat="47.85239" lon="-2.49941">
        <ele>11</ele>
        <time>2012-03-30T12:42:40</time>
      </trkpt>
      <trkpt lat="47.8521" lon="-2.49921">
        <ele>10</ele>
        <time>2012-03-30T12:43:10</time>
      </trkpt>
      <trkpt lat="47.85204" lon="-2.49874">
        <ele>9</ele>
        <time>2012-03-30T12:43:40</time>
      </trkpt>
      <trkpt lat="47.8522" lon="-2.49826">
        <ele>10</ele>
        <time>2012-03-30T12:44:11</time>
      </trkpt>
      <trkpt lat="47.85232" lon="-2.49774">
        <ele>8</ele>
        <time>2012-03-30T12:44:41</time>
      </trkpt>
      <trkpt lat="47.85249" lon="-2.49723">
        <ele>8</ele>
        <time>2012-03-30T12:45:11</time>
      </trkpt>
      <trkpt lat="47.85251" lon="-2.49667">
        <ele>7</ele>
        <time>2012-03-30T12:45:41</time>
      </trkpt>
      <trkpt lat="47.85246" lon="-2.49609">
        <ele>6</ele>
        <time>2012-03-30T12:46:12</time>
      </trkpt>
      <trkpt lat="47.85239" lon="-2.49556">
        <ele>6</ele>
        <time>2012-03-30T12:46:42</time>
      </trkpt>
      <trkpt lat="47.85232" lon="-2.49498">
        <ele>5</ele>
        <time>2012-03-30T12:47:12</time>
      </trkpt>
      <trkpt lat="47.85224" lon="-2.49438">
        <ele>4</ele>
        <time>2012-03-30T12:47:42</time>
      </trkpt>
      <trkpt lat="47.85218" lon="-2.49381">
        <ele>6</ele>
        <time>2012-03-30T12:48:12</time>
      </trkpt>
      <trkpt lat="47.85211" lon="-2.49327">
        <ele>4</ele>
        <time>2012-03-30T12:48:42</time>
      </trkpt>
      <trkpt lat="47.85203" lon="-2.49271">
        <ele>3</ele>
        <time>2012-03-30T12:49:13</time>
      </trkpt>
      <trkpt lat="47.85195" lon="-2.49215">
        <ele>1</ele>
        <time>2012-03-30T12:49:43</time>
      </trkpt>
      <trkpt lat="47.85188" lon="-2.49159">
        <ele>81.8</ele>
        <time>2012-03-30T12:50:13</time>
      </trkpt>
      <trkpt lat="47.85183" lon="-2.49113">
        <ele>-1</ele>
        <time>2012-03-30T12:50:43</time>
      </trkpt>
      <trkpt lat="47.85174" lon="-2.49053">
        <ele>-1</ele>
        <time>2012-03-30T12:51:13</time>
      </trkpt>
      <trkpt lat="47.85168" lon="-2.48998">
        <ele>-1</ele>
        <time>2012-03-30T12:51:44</time>
      </trkpt>
      <trkpt lat="47.85164" lon="-2.48971">
        <ele>-1</ele>
        <time>2012-03-30T12:52:14</time>
      </trkpt>
      <trkpt lat="47.85159" lon="-2.48965">
        <ele>-1</ele>
        <time>2012-03-30T12:52:44</time>
      </trkpt>
      <trkpt lat="47.85167" lon="-2.4896">
        <ele>81</ele>
        <time>2012-03-30T12:53:14</time>
      </trkpt>
      <trkpt lat="47.85189" lon="-2.48953">
        <ele>1</ele>
        <time>2012-03-30T12:53:44</time>
      </trkpt>
      <trkpt lat="47.85222" lon="-2.48938">
        <ele>3</ele>
        <time>2012-03-30T12:54:14</time>
      </trkpt>
      <trkpt lat="47.85259" lon="-2.4892">
        <ele>3</ele>
        <time>2012-03-30T12:54:45</time>
      </trkpt>
      <trkpt lat="47.85292" lon="-2.48898">
        <ele>2</ele>
        <time>2012-03-30T12:55:15</time>
      </trkpt>
      <trkpt lat="47.853" lon="-2.48851">
        <ele>1</ele>
        <time>2012-03-30T12:55:45</time>
      </trkpt>
      <trkpt lat="47.8531" lon="-2.48802">
        <ele>-1</ele>
        <time>2012-03-30T12:56:15</time>
      </trkpt>
      <trkpt lat="47.85312" lon="-2.48748">
        <ele>-3</ele>
        <time>2012-03-30T12:56:45</time>
      </trkpt>
      <trkpt lat="47.85312" lon="-2.48692">
        <ele>-5</ele>
        <time>2012-03-30T12:57:16</time>
      </trkpt>
      <trkpt lat="47.85315" lon="-2.48652">
        <ele>-6</ele>
        <time>2012-03-30T12:57:46</time>
      </trkpt>
      <trkpt lat="47.85326" lon="-2.4866">
        <ele>-7</ele>
        <time>2012-03-30T12:58:16</time>
      </trkpt>
      <trkpt lat="47.85326" lon="-2.4865">
        <ele>-6</ele>
        <time>2012-03-30T12:58:46</time>
      </trkpt>
      <trkpt lat="47.85344" lon="-2.48697">
        <ele>-10</ele>
        <time>2012-03-30T12:59:16</time>
      </trkpt>
      <trkpt lat="47.85361" lon="-2.4874">
        <ele>-11</ele>
        <time>2012-03-30T12:59:46</time>
      </trkpt>
      <trkpt lat="47.8539" lon="-2.48766">
        <ele>-15</ele>
        <time>2012-03-30T13:00:17</time>
      </trkpt>
      <trkpt lat="47.8542" lon="-2.48792">
        <ele>-18</ele>
        <time>2012-03-30T13:00:47</time>
      </trkpt>
      <trkpt lat="47.85458" lon="-2.48811">
        <ele>-22</ele>
        <time>2012-03-30T13:01:17</time>
      </trkpt>
      <trkpt lat="47.85502" lon="-2.48831">
        <ele>-24</ele>
        <time>2012-03-30T13:01:47</time>
      </trkpt>
      <trkpt lat="47.85532" lon="-2.48849">
        <ele>-26</ele>
        <time>2012-03-30T13:02:17</time>
      </trkpt>
      <trkpt lat="47.85558" lon="-2.48889">
        <ele>-28</ele>
        <time>2012-03-30T13:02:48</time>
      </trkpt>
      <trkpt lat="47.85575" lon="-2.48938">
        <ele>-29</ele>
        <time>2012-03-30T13:03:18</time>
      </trkpt>
      <trkpt lat="47.85608" lon="-2.48938">
        <ele>-33</ele>
        <time>2012-03-30T13:03:48</time>
      </trkpt>
      <trkpt lat="47.85634" lon="-2.48968">
        <ele>-35</ele>
        <time>2012-03-30T13:04:18</time>
      </trkpt>
      <trkpt lat="47.85662" lon="-2.49005">
        <ele>-33</ele>
        <time>2012-03-30T13:04:48</time>
      </trkpt>
      <trkpt lat="47.85667" lon="-2.49048">
        <ele>-28</ele>
        <time>2012-03-30T13:05:18</time>
      </trkpt>
      <trkpt lat="47.85673" lon="-2.49088">
        <ele>-22</ele>
        <time>2012-03-30T13:05:49</time>
      </trkpt>
      <trkpt lat="47.85685" lon="-2.49107">
        <ele>-18</ele>
        <time>2012-03-30T13:06:19</time>
      </trkpt>
      <trkpt lat="47.85709" lon="-2.49106">
        <ele>-14</ele>
        <time>2012-03-30T13:06:49</time>
      </trkpt>
      <trkpt lat="47.85721" lon="-2.49098">
        <ele>-12</ele>
        <time>2012-03-30T13:07:19</time>
      </trkpt>
      <trkpt lat="47.85723" lon="-2.49105">
        <ele>-13</ele>
        <time>2012-03-30T13:07:49</time>
      </trkpt>
      <trkpt lat="47.85724" lon="-2.49108">
        <ele>-12</ele>
        <time>2012-03-30T13:08:20</time>
      </trkpt>
      <trkpt lat="47.85727" lon="-2.49131">
        <ele>-16</ele>
        <time>2012-03-30T13:08:50</time>
      </trkpt>
      <trkpt lat="47.85716" lon="-2.49163">
        <ele>-14</ele>
        <time>2012-03-30T13:09:20</time>
      </trkpt>
      <trkpt lat="47.85704" lon="-2.49173">
        <ele>-11</ele>
        <time>2012-03-30T13:09:50</time>
      </trkpt>
      <trkpt lat="47.85696" lon="-2.49169">
        <ele>-12</ele>
        <time>2012-03-30T13:10:20</time>
      </trkpt>
      <trkpt lat="47.85692" lon="-2.49198">
        <ele>-8</ele>
        <time>2012-03-30T13:10:50</time>
      </trkpt>
      <trkpt lat="47.85685" lon="-2.49238">
        <ele>-9</ele>
        <time>2012-03-30T13:11:20</time>
      </trkpt>
      <trkpt lat="47.8568" lon="-2.49276">
        <ele>-10</ele>
        <time>2012-03-30T13:11:51</time>
      </trkpt>
      <trkpt lat="47.85681" lon="-2.49318">
        <ele>-7</ele>
        <time>2012-03-30T13:12:21</time>
      </trkpt>
      <trkpt lat="47.85679" lon="-2.49359">
        <ele>-6</ele>
        <time>2012-03-30T13:12:51</time>
      </trkpt>
      <trkpt lat="47.85697" lon="-2.4939">
        <ele>-3</ele>
        <time>2012-03-30T13:13:21</time>
      </trkpt>
      <trkpt lat="47.85711" lon="-2.49395">
        <ele>80.3</ele>
        <time>2012-03-30T13:13:51</time>
      </trkpt>
      <trkpt lat="47.85723" lon="-2.4943">
        <ele>-4</ele>
        <time>2012-03-30T13:14:22</time>
      </trkpt>
      <trkpt lat="47.85731" lon="-2.4947">
        <ele>-8</ele>
        <time>2012-03-30T13:14:52</time>
      </trkpt>
      <trkpt lat="47.85733" lon="-2.49518">
        <ele>-11</ele>
        <time>2012-03-30T13:15:22</time>
      </trkpt>
      <trkpt lat="47.85738" lon="-2.49569">
        <ele>-14</ele>
        <time>2012-03-30T13:15:52</time>
      </trkpt>
      <trkpt lat="47.85735" lon="-2.49623">
        <ele>-15</ele>
        <time>2012-03-30T13:16:23</time>
      </trkpt>
      <trkpt lat="47.85727" lon="-2.49668">
        <ele>-19</ele>
        <time>2012-03-30T13:16:53</time>
      </trkpt>
      <trkpt lat="47.85717" lon="-2.49714">
        <ele>-21</ele>
        <time>2012-03-30T13:17:23</time>
      </trkpt>
      <trkpt lat="47.85708" lon="-2.49764">
        <ele>-23</ele>
        <time>2012-03-30T13:17:53</time>
      </trkpt>
      <trkpt lat="47.85708" lon="-2.49814">
        <ele>-22</ele>
        <time>2012-03-30T13:18:23</time>
      </trkpt>
      <trkpt lat="47.85703" lon="-2.49858">
        <ele>-23</ele>
        <time>2012-03-30T13:18:54</time>
      </trkpt>
      <trkpt lat="47.85696" lon="-2.49908">
        <ele>-22</ele>
        <time>2012-03-30T13:19:24</time>
      </trkpt>
      <trkpt lat="47.85686" lon="-2.49958">
        <ele>-20</ele>
        <time>2012-03-30T13:19:54</time>
      </trkpt>
      <trkpt lat="47.85688" lon="-2.50001">
        <ele>-19</ele>
        <time>2012-03-30T13:20:24</time>
      </trkpt>
      <trkpt lat="47.85693" lon="-2.5005">
        <ele>-17</ele>
        <time>2012-03-30T13:20:54</time>
      </trkpt>
      <trkpt lat="47.85683" lon="-2.50101">
        <ele>-20</ele>
        <time>2012-03-30T13:21:25</time>
      </trkpt>
      <trkpt lat="47.85678" lon="-2.50153">
        <ele>-18</ele>
        <time>2012-03-30T13:21:55</time>
      </trkpt>
      <trkpt lat="47.85682" lon="-2.50203">
        <ele>-15</ele>
        <time>2012-03-30T13:22:25</time>
      </trkpt>
      <trkpt lat="47.85697" lon="-2.50244">
        <ele>-13</ele>
        <time>2012-03-30T13:22:55</time>
      </trkpt>
      <trkpt lat="47.85719" lon="-2.50283">
        <ele>-15</ele>
        <time>2012-03-30T13:23:26</time>
      </trkpt>
      <trkpt lat="47.85747" lon="-2.50314">
        <ele>-16</ele>
        <time>2012-03-30T13:23:56</time>
      </trkpt>
      <trkpt lat="47.85777" lon="-2.50332">
        <ele>-15</ele>
        <time>2012-03-30T13:24:26</time>
      </trkpt>
      <trkpt lat="47.85805" lon="-2.50351">
        <ele>-17</ele>
        <time>2012-03-30T13:24:56</time>
      </trkpt>
      <trkpt lat="47.85835" lon="-2.50379">
        <ele>-20</ele>
        <time>2012-03-30T13:25:26</time>
      </trkpt>
      <trkpt lat="47.85867" lon="-2.50392">
        <ele>-19</ele>
        <time>2012-03-30T13:25:57</time>
      </trkpt>
      <trkpt lat="47.85896" lon="-2.50402">
        <ele>-19</ele>
        <time>2012-03-30T13:26:27</time>
      </trkpt>
      <trkpt lat="47.85926" lon="-2.50426">
        <ele>-18</ele>
        <time>2012-03-30T13:26:57</time>
      </trkpt>
      <trkpt lat="47.85961" lon="-2.50445">
        <ele>-17</ele>
        <time>2012-03-30T13:27:27</time>
      </trkpt>
      <trkpt lat="47.86" lon="-2.50451">
        <ele>-16</ele>
        <time>2012-03-30T13:27:57</time>
      </trkpt>
      <trkpt lat="47.86039" lon="-2.50467">
        <ele>-15</ele>
        <time>2012-03-30T13:28:27</time>
      </trkpt>
      <trkpt lat="47.86061" lon="-2.50503">
        <ele>-15</ele>
        <time>2012-03-30T13:28:58</time>
      </trkpt>
      <trkpt lat="47.86069" lon="-2.50538">
        <ele>-15</ele>
        <time>2012-03-30T13:29:28</time>
      </trkpt>
      <trkpt lat="47.86093" lon="-2.50574">
        <ele>-14</ele>
        <time>2012-03-30T13:29:58</time>
      </trkpt>
      <trkpt lat="47.8611" lon="-2.50616">
        <ele>-9</ele>
        <time>2012-03-30T13:30:28</time>
      </trkpt>
      <trkpt lat="47.86107" lon="-2.50658">
        <ele>-9</ele>
        <time>2012-03-30T13:30:59</time>
      </trkpt>
      <trkpt lat="47.86101" lon="-2.50701">
        <ele>-9</ele>
        <time>2012-03-30T13:31:29</time>
      </trkpt>
      <trkpt lat="47.86096" lon="-2.50742">
        <ele>-8</ele>
        <time>2012-03-30T13:31:59</time>
      </trkpt>
      <trkpt lat="47.861" lon="-2.50788">
        <ele>-8</ele>
        <time>2012-03-30T13:32:29</time>
      </trkpt>
      <trkpt lat="47.86108" lon="-2.50827">
        <ele>-7</ele>
        <time>2012-03-30T13:32:59</time>
      </trkpt>
      <trkpt lat="47.86121" lon="-2.50873">
        <ele>-5</ele>
        <time>2012-03-30T13:33:29</time>
      </trkpt>
      <trkpt lat="47.86154" lon="-2.50896">
        <ele>-5</ele>
        <time>2012-03-30T13:34:00</time>
      </trkpt>
      <trkpt lat="47.86185" lon="-2.50922">
        <ele>-7</ele>
        <time>2012-03-30T13:34:30</time>
      </trkpt>
      <trkpt lat="47.86199" lon="-2.50965">
        <ele>-5</ele>
        <time>2012-03-30T13:35:00</time>
      </trkpt>
      <trkpt lat="47.86215" lon="-2.51012">
        <ele>-4</ele>
        <time>2012-03-30T13:35:30</time>
      </trkpt>
      <trkpt lat="47.86223" lon="-2.51051">
        <ele>-4</ele>
        <time>2012-03-30T13:36:00</time>
      </trkpt>
      <trkpt lat="47.86251" lon="-2.5108">
        <ele>75.9</ele>
        <time>2012-03-30T13:36:31</time>
      </trkpt>
      <trkpt lat="47.86268" lon="-2.51109">
        <ele>1</ele>
        <time>2012-03-30T13:37:01</time>
      </trkpt>
      <trkpt lat="47.86287" lon="-2.51153">
        <ele>81.9</ele>
        <time>2012-03-30T13:37:31</time>
      </trkpt>
      <trkpt lat="47.86299" lon="-2.51201">
        <ele>81.2</ele>
        <time>2012-03-30T13:38:01</time>
      </trkpt>
      <trkpt lat="47.86312" lon="-2.51252">
        <ele>2</ele>
        <time>2012-03-30T13:38:32</time>
      </trkpt>
      <trkpt lat="47.8632" lon="-2.51284">
        <ele>78.7</ele>
        <time>2012-03-30T13:39:02</time>
      </trkpt>
      <trkpt lat="47.86322" lon="-2.51311">
        <ele>80.1</ele>
        <time>2012-03-30T13:39:32</time>
      </trkpt>
      <trkpt lat="47.86311" lon="-2.51352">
        <ele>80</ele>
        <time>2012-03-30T13:40:02</time>
      </trkpt>
      <trkpt lat="47.86306" lon="-2.51397">
        <ele>79.4</ele>
        <time>2012-03-30T13:40:32</time>
      </trkpt>
      <trkpt lat="47.86301" lon="-2.51447">
        <ele>-2</ele>
        <time>2012-03-30T13:41:03</time>
      </trkpt>
      <trkpt lat="47.86331" lon="-2.51481">
        <ele>-1</ele>
        <time>2012-03-30T13:41:33</time>
      </trkpt>
      <trkpt lat="47.86366" lon="-2.51498">
        <ele>80</ele>
        <time>2012-03-30T13:42:03</time>
      </trkpt>
      <trkpt lat="47.86388" lon="-2.51514">
        <ele>-2</ele>
        <time>2012-03-30T13:42:33</time>
      </trkpt>
      <trkpt lat="47.86398" lon="-2.51544">
        <ele>-1</ele>
        <time>2012-03-30T13:43:03</time>
      </trkpt>
      <trkpt lat="47.86414" lon="-2.51578">
        <ele>76.5</ele>
        <time>2012-03-30T13:43:33</time>
      </trkpt>
      <trkpt lat="47.86422" lon="-2.51605">
        <ele>3</ele>
        <time>2012-03-30T13:44:04</time>
      </trkpt>
      <trkpt lat="47.86427" lon="-2.51616">
        <ele>3</ele>
        <time>2012-03-30T13:44:34</time>
      </trkpt>
      <trkpt lat="47.86428" lon="-2.51616">
        <ele>1</ele>
        <time>2012-03-30T13:45:04</time>
      </trkpt>
      <trkpt lat="47.86432" lon="-2.51619">
        <ele>1</ele>
        <time>2012-03-30T13:45:34</time>
      </trkpt>
      <trkpt lat="47.86428" lon="-2.51619">
        <ele>2</ele>
        <time>2012-03-30T13:46:04</time>
      </trkpt>
      <trkpt lat="47.8643" lon="-2.51633">
        <ele>2</ele>
        <time>2012-03-30T13:46:35</time>
      </trkpt>
      <trkpt lat="47.8643" lon="-2.51662">
        <ele>3</ele>
        <time>2012-03-30T13:47:05</time>
      </trkpt>
      <trkpt lat="47.86432" lon="-2.51691">
        <ele>4</ele>
        <time>2012-03-30T13:47:35</time>
      </trkpt>
      <trkpt lat="47.86451" lon="-2.51718">
        <ele>7</ele>
        <time>2012-03-30T13:48:05</time>
      </trkpt>
      <trkpt lat="47.86472" lon="-2.51745">
        <ele>9</ele>
        <time>2012-03-30T13:48:35</time>
      </trkpt>
      <trkpt lat="47.86497" lon="-2.5176">
        <ele>14</ele>
        <time>2012-03-30T13:49:06</time>
      </trkpt>
      <trkpt lat="47.86512" lon="-2.51711">
        <ele>11</ele>
        <time>2012-03-30T13:49:36</time>
      </trkpt>
      <trkpt lat="47.86531" lon="-2.51678">
        <ele>8</ele>
        <time>2012-03-30T13:50:06</time>
      </trkpt>
      <trkpt lat="47.86555" lon="-2.51651">
        <ele>6</ele>
        <time>2012-03-30T13:50:36</time>
      </trkpt>
      <trkpt lat="47.86586" lon="-2.51629">
        <ele>3</ele>
        <time>2012-03-30T13:51:07</time>
      </trkpt>
      <trkpt lat="47.86606" lon="-2.51631">
        <ele>2</ele>
        <time>2012-03-30T13:51:37</time>
      </trkpt>
    </trkseg>
  </trk>
</gpx>